ADDS METAR Data

Data at: 0254 UTC 21 Jun 2018

METAR for:EGLF (Farnborough Arpt, --, UK)
Text:No data found

TAF for:EGLF (Farnborough Arpt, --, UK) issued at 1706 UTC 20 Jun 2018
Text:TAF EGLF 201706Z 2018/2021 23012KT 9999 SCT025
Forecast period:1800 to 2100 UTC 20 June 2018
Forecast type:FROM: standard forecast or significant change
Winds:from the SW (230 degrees) at 14 MPH (12 knots; 6.2 m/s)
Visibility:6 or more sm (10+ km)
Ceiling:at least 12,000 feet AGL
Clouds: scattered clouds at 2500 feet AGL
Text:BECMG 2018/2021 29010KT
Forecast period:1800 to 2100 UTC 20 June 2018
Forecast type:BECOMING: Conditions expected to become as follows by 2100 UTC 20 June 2018
Winds:from the WNW (290 degrees) at 12 MPH (10 knots; 5.1 m/s)
Visibility:6 or more sm (10+ km)
Ceiling:at least 12,000 feet AGL
Clouds: scattered clouds at 2500 feet AGL

METAR for:EGUB (Benson(RAF), --, UK)
Text:EGUB 210150Z AUTO 33003KT 9999 // NCD 10/06 Q1022
Temperature: 10.0°C ( 50°F)
Dewpoint: 6.0°C ( 43°F) [RH = 76%]
Pressure (altimeter):30.18 inches Hg (1022.0 mb)
Winds:from the NNW (330 degrees) at 3 MPH (3 knots; 1.5 m/s)
Visibility:6 or more sm (10+ km)
Ceiling:at least 12,000 feet AGL
Clouds:sky clear below 12,000 feet AGL

TAF for:EGUB (Benson(RAF), --, UK) issued at 1636 UTC 20 Jun 2018
Text:TAF EGUB 201636Z 2018/2021 30010KT 9999 BKN025
Forecast period:1800 to 2100 UTC 20 June 2018
Forecast type:FROM: standard forecast or significant change
Winds:from the WNW (300 degrees) at 12 MPH (10 knots; 5.1 m/s)
Visibility:6 or more sm (10+ km)
Ceiling:2500 feet AGL
Clouds: broken clouds at 2500 feet AGL
Text:TEMPO 2018/2021 BKN016
Forecast period:1800 to 2100 UTC 20 June 2018
Forecast type:TEMPORARY: The following changes expected for less than half the time period
Ceiling:1600 feet AGL
Clouds: broken clouds at 1600 feet AGL

METAR for:EGVO (Odiham(RAF), --, UK)
Text:EGVO 210150Z AUTO 35009KT 9999 FEW042/// 12/05 Q1022
Temperature: 12.0°C ( 54°F)
Dewpoint: 5.0°C ( 41°F) [RH = 62%]
Pressure (altimeter):30.18 inches Hg (1022.0 mb)
Winds:from the N (350 degrees) at 10 MPH (9 knots; 4.6 m/s)
Visibility:6 or more sm (10+ km)
Ceiling:at least 12,000 feet AGL
Clouds: few clouds at 4200 feet AGL

TAF for:EGVO (Odiham(RAF), --, UK) issued at 1921 UTC 20 Jun 2018
Text:TAF EGVO 201921Z 2021/2109 29008KT 9999 BKN025
Forecast period:2100 UTC 20 June 2018 to 0900 UTC 21 June 2018
Forecast type:FROM: standard forecast or significant change
Winds:from the WNW (290 degrees) at 9 MPH (8 knots; 4.1 m/s)
Visibility:6 or more sm (10+ km)
Ceiling:2500 feet AGL
Clouds: broken clouds at 2500 feet AGL
Text:PROB30
Forecast period:2100 to 2200 UTC 20 June 2018
Forecast type:TEMPORARY: The following changes expected for less than half the time period
Ceiling:at least 12,000 feet AGL
Clouds: scattered clouds at 2000 feet AGL

METAR for:EGTK (Oxford Arpt, --, UK)
Text:EGTK 202120Z 31007KT 9999 BKN037 14/08 Q1021
Temperature: 14.0°C ( 57°F)
Dewpoint: 8.0°C ( 46°F) [RH = 67%]
Pressure (altimeter):30.15 inches Hg (1021.0 mb)
Winds:from the NW (310 degrees) at 8 MPH (7 knots; 3.6 m/s)
Visibility:6 or more sm (10+ km)
Ceiling:3700 feet AGL
Clouds: broken clouds at 3700 feet AGL

TAF for:EGTK (Oxford Arpt, --, UK) issued at 2012 UTC 20 Jun 2018
Text:TAF AMD EGTK 202012Z 2020/2022 33009KT 9999 SCT025
Forecast period:2000 to 2200 UTC 20 June 2018
Forecast type:FROM: standard forecast or significant change
Winds:from the NNW (330 degrees) at 10 MPH (9 knots; 4.6 m/s)
Visibility:6 or more sm (10+ km)
Ceiling:at least 12,000 feet AGL
Clouds: scattered clouds at 2500 feet AGL

METAR for:EGHH (Bournemouth Intl, --, UK)
Text:EGHH 202250Z 32008KT 9999 SCT010 15/13 Q1021
Temperature: 15.0°C ( 59°F)
Dewpoint: 13.0°C ( 55°F) [RH = 88%]
Pressure (altimeter):30.15 inches Hg (1021.0 mb)
Winds:from the NW (320 degrees) at 9 MPH (8 knots; 4.1 m/s)
Visibility:6 or more sm (10+ km)
Ceiling:at least 12,000 feet AGL
Clouds: scattered clouds at 1000 feet AGL

TAF for:EGHH (Bournemouth Intl, --, UK) issued at 2257 UTC 20 Jun 2018
Text:TAF EGHH 202257Z 2100/2109 32008KT 9999 FEW015 SCT025
Forecast period:0000 to 0900 UTC 21 June 2018
Forecast type:FROM: standard forecast or significant change
Winds:from the NW (320 degrees) at 9 MPH (8 knots; 4.1 m/s)
Visibility:6 or more sm (10+ km)
Ceiling:at least 12,000 feet AGL
Clouds: few clouds at 1500 feet AGL, scattered clouds at 2500 feet AGL
Text:PROB30
Forecast period:0000 to 0300 UTC 21 June 2018
Forecast type:TEMPORARY: The following changes expected for less than half the time period
Ceiling:1400 feet AGL
Clouds: broken clouds at 1400 feet AGL

METAR for:
Text:No data found

TAF for:
Text:No data found